Time;durP1;ratioP1;P1;durP2;ratioP2;P2;SDS_P1;SDS_P2;PMS_P1;PMS_P2;Temp;Humidity;BMP_temperature;BMP_pressure;BME280_temperature;BME280_humidity;BME280_pressure;Samples;Min_cycle;Max_cycle;Signal;HPM_P1;HPM_P2
2023/11/24 00:01:54;;;;;;;;;;;;;;;7.53;100.00;99152.97;4994612;28;19948;-70
2023/11/24 00:04:19;;;;;;;;;;;;;;;7.44;100.00;99144.59;4995175;28;19919;-70
2023/11/24 00:06:45;;;;;;;;;;;;;;;7.38;100.00;99143.09;4993286;28;19917;-70
2023/11/24 00:09:10;;;;;;;;;;;;;;;6.95;100.00;99140.94;4995442;28;19942;-70
2023/11/24 00:11:35;;;;;;;;;;;;;;;6.93;100.00;99148.78;4994544;28;20316;-70
2023/11/24 00:14:01;;;;;;;;;;;;;;;7.13;100.00;99139.91;4993888;28;19918;-70
2023/11/24 00:16:26;;;;;;;;;;;;;;;7.13;100.00;99137.09;4995072;28;19913;-70
2023/11/24 00:18:51;;;;;;;;;;;;;;;7.11;100.00;99127.44;4995227;28;19966;-70
2023/11/24 00:21:17;;;;;;;;;;;;;;;7.19;100.00;99125.84;4995660;28;20459;-70
2023/11/24 00:23:42;;;;;;;;;;;;;;;7.31;100.00;99123.25;4993660;28;19964;-70
2023/11/24 00:26:07;;;;;;;;;;;;;;;7.36;100.00;99122.31;4993696;28;19914;-70
2023/11/24 00:28:33;;;;;;;;;;;;;;;7.44;100.00;99113.97;4994778;28;19913;-70
2023/11/24 00:30:59;;;;;;;;;;;;;;;7.32;100.00;99110.19;4994642;28;19922;-70
2023/11/24 00:33:26;;;;;;;;;;;;;;;7.18;100.00;99104.72;4992389;28;20381;-70
2023/11/24 00:35:52;;;;;;;;;;;;;;;7.22;100.00;99109.31;4994780;28;20392;-70
2023/11/24 00:38:17;;;;;;;;;;;;;;;7.26;100.00;99095.59;4989216;28;19924;-70
2023/11/24 00:40:43;;;;;;;;;;;;;;;7.33;100.00;99084.00;4975221;28;20000;-70
2023/11/24 00:43:08;;;;;;;;;;;;;;;7.28;100.00;99080.19;4989568;28;19929;-70
2023/11/24 00:45:34;;;;;;;;;;;;;;;7.27;100.00;99077.75;4994581;28;19922;-70
2023/11/24 00:47:59;;;;;;;;;;;;;;;7.36;100.00;99075.84;4993202;28;19997;-70
2023/11/24 00:50:24;;;;;;;;;;;;;;;7.37;100.00;99074.69;4994510;28;19914;-70
2023/11/24 00:52:49;;;;;;;;;;;;;;;7.36;100.00;99052.75;4988728;28;19918;-70
2023/11/24 00:55:15;;;;;;;;;;;;;;;7.32;100.00;99062.88;4976321;28;19930;-70
2023/11/24 00:57:40;;;;;;;;;;;;;;;7.28;100.00;99066.28;4994618;28;19914;-69
2023/11/24 01:00:08;;;;;;;;;;;;;;;7.29;100.00;99050.44;4994218;28;19993;-70
2023/11/24 01:02:36;;;;;;;;;;;;;;;7.16;100.00;99044.66;4993365;28;19918;-70
2023/11/24 01:05:02;;;;;;;;;;;;;;;7.12;100.00;99037.28;4994310;28;19917;-70
2023/11/24 01:07:27;;;;;;;;;;;;;;;7.22;100.00;99042.56;4994163;28;20389;-70
2023/11/24 01:09:52;;;;;;;;;;;;;;;7.21;100.00;99031.75;4991828;28;19920;-70
2023/11/24 01:12:17;;;;;;;;;;;;;;;6.95;100.00;99029.72;4993225;28;19921;-69
2023/11/24 01:14:43;;;;;;;;;;;;;;;6.95;100.00;99032.50;4994097;28;20009;-70
2023/11/24 01:17:08;;;;;;;;;;;;;;;6.98;100.00;99017.94;4992755;28;19924;-70
2023/11/24 01:19:33;;;;;;;;;;;;;;;7.15;100.00;99012.44;4993938;28;19913;-70
2023/11/24 01:21:58;;;;;;;;;;;;;;;7.12;100.00;99010.31;4993241;28;20009;-70
2023/11/24 01:24:24;;;;;;;;;;;;;;;7.23;100.00;99007.19;4992284;28;20381;-70
2023/11/24 01:26:49;;;;;;;;;;;;;;;7.24;100.00;99006.06;4993991;28;19968;-70
2023/11/24 01:29:15;;;;;;;;;;;;;;;7.25;100.00;99008.53;4988676;28;20297;-70
2023/11/24 01:31:40;;;;;;;;;;;;;;;7.19;100.00;98989.53;4992104;28;20384;-70
2023/11/24 01:34:05;;;;;;;;;;;;;;;6.72;100.00;98977.78;4993588;28;19929;-70
2023/11/24 01:36:31;;;;;;;;;;;;;;;6.73;100.00;98981.38;4991977;28;19913;-69
2023/11/24 01:38:57;;;;;;;;;;;;;;;6.80;100.00;98986.47;4993562;28;19918;-69
2023/11/24 01:41:22;;;;;;;;;;;;;;;6.77;100.00;98965.72;4993438;28;19914;-69
2023/11/24 01:44:00;;;;;;;;;;;;;;;6.91;100.00;98953.66;4973171;28;19918;-69
2023/11/24 01:46:26;;;;;;;;;;;;;;;6.63;100.00;98953.88;4973772;28;19938;-70
2023/11/24 01:48:52;;;;;;;;;;;;;;;6.79;100.00;98946.75;4972631;28;19915;-69
2023/11/24 01:51:17;;;;;;;;;;;;;;;6.92;100.00;98944.16;4990053;28;19917;-69
2023/11/24 01:53:42;;;;;;;;;;;;;;;6.92;100.00;98941.38;4992531;28;19973;-69
2023/11/24 01:56:08;;;;;;;;;;;;;;;6.90;100.00;98922.22;4993094;28;19928;-69
2023/11/24 01:58:33;;;;;;;;;;;;;;;6.86;100.00;98935.97;4993269;28;19961;-69
2023/11/24 02:00:59;;;;;;;;;;;;;;;6.83;100.00;98927.47;4993010;28;19922;-69
2023/11/24 02:03:25;;;;;;;;;;;;;;;6.82;100.00;98926.63;4986656;28;19922;-70
2023/11/24 02:05:50;;;;;;;;;;;;;;;6.77;100.00;98926.81;4973742;28;20413;-70
2023/11/24 02:08:16;;;;;;;;;;;;;;;6.30;100.00;98916.16;4978721;28;20008;-70
2023/11/24 02:10:42;;;;;;;;;;;;;;;6.57;100.00;98912.34;4991738;28;20463;-70
2023/11/24 02:13:08;;;;;;;;;;;;;;;6.66;100.00;98911.56;4986039;28;19969;-70
2023/11/24 02:15:33;;;;;;;;;;;;;;;6.62;100.00;98900.25;4988335;28;19925;-69
2023/11/24 02:17:58;;;;;;;;;;;;;;;6.40;100.00;98896.44;4973598;28;20371;-69
2023/11/24 02:20:25;;;;;;;;;;;;;;;6.00;100.00;98880.53;4972048;28;19937;-69
2023/11/24 02:22:50;;;;;;;;;;;;;;;6.20;100.00;98889.50;4982968;28;19940;-69
2023/11/24 02:25:16;;;;;;;;;;;;;;;6.02;100.00;98880.25;4992408;28;19918;-70
2023/11/24 02:27:41;;;;;;;;;;;;;;;6.17;100.00;98887.34;4992595;28;19993;-69
2023/11/24 02:30:07;;;;;;;;;;;;;;;5.96;100.00;98885.09;4985834;28;19918;-70
2023/11/24 02:32:33;;;;;;;;;;;;;;;6.06;100.00;98878.47;4980426;28;20356;-70
2023/11/24 02:34:59;;;;;;;;;;;;;;;6.25;100.00;98871.88;4992475;28;19921;-70
2023/11/24 02:37:25;;;;;;;;;;;;;;;6.34;100.00;98869.13;4991350;28;19914;-70
2023/11/24 02:39:50;;;;;;;;;;;;;;;6.23;100.00;98851.94;4978237;28;19918;-69
2023/11/24 02:42:15;;;;;;;;;;;;;;;6.30;100.00;98842.00;4977421;28;19917;-69
2023/11/24 02:44:41;;;;;;;;;;;;;;;5.94;100.00;98837.41;4990637;28;20377;-70
2023/11/24 02:47:06;;;;;;;;;;;;;;;6.13;100.00;98833.59;4987350;28;20441;-69
2023/11/24 02:49:35;;;;;;;;;;;;;;;6.19;100.00;98829.53;4972991;28;19973;-69
2023/11/24 02:52:00;;;;;;;;;;;;;;;6.05;100.00;98824.09;4975245;28;19922;-69
2023/11/24 02:54:25;;;;;;;;;;;;;;;6.11;100.00;98833.09;4990998;28;19917;-70
2023/11/24 02:56:51;;;;;;;;;;;;;;;6.27;100.00;98831.50;4992342;28;19921;-70
2023/11/24 02:59:16;;;;;;;;;;;;;;;6.43;100.00;98819.97;4991750;28;20304;-69
2023/11/24 03:01:41;;;;;;;;;;;;;;;6.12;100.00;98815.28;4991658;28;19924;-70
2023/11/24 03:04:07;;;;;;;;;;;;;;;6.21;100.00;98810.59;4985291;28;19925;-70
2023/11/24 03:06:39;;;;;;;;;;;;;;;5.95;100.00;98796.56;4972881;28;20348;-70
2023/11/24 03:09:06;;;;;;;;;;;;;;;6.17;100.00;98804.06;4982627;28;19913;-69
2023/11/24 03:11:31;;;;;;;;;;;;;;;6.35;100.00;98788.25;4992244;28;19957;-70
2023/11/24 03:13:56;;;;;;;;;;;;;;;6.31;100.00;98790.84;4992005;28;19980;-70
2023/11/24 03:16:22;;;;;;;;;;;;;;;6.36;100.00;98784.31;4992245;28;19925;-70
2023/11/24 03:18:47;;;;;;;;;;;;;;;6.43;100.00;98784.66;4986377;28;19914;-70
2023/11/24 03:21:12;;;;;;;;;;;;;;;6.36;100.00;98777.94;4972488;28;20036;-70
2023/11/24 03:23:38;;;;;;;;;;;;;;;6.38;100.00;98773.69;4972798;28;19918;-70
2023/11/24 03:26:03;;;;;;;;;;;;;;;6.36;100.00;98769.59;4972598;28;20005;-70
2023/11/24 03:28:28;;;;;;;;;;;;;;;6.12;100.00;98768.06;4972361;28;19918;-69
2023/11/24 03:30:53;;;;;;;;;;;;;;;6.09;100.00;98772.31;4991515;28;19917;-69
2023/11/24 03:33:20;;;;;;;;;;;;;;;6.21;100.00;98762.53;4991999;28;19936;-69
2023/11/24 03:35:45;;;;;;;;;;;;;;;6.34;100.00;98758.84;4986796;28;19921;-70
2023/11/24 03:38:11;;;;;;;;;;;;;;;6.24;100.00;98761.91;4972601;28;19922;-70
2023/11/24 03:40:36;;;;;;;;;;;;;;;6.35;100.00;98757.69;4990338;28;19914;-70
2023/11/24 03:43:02;;;;;;;;;;;;;;;6.36;100.00;98756.56;4991679;28;19996;-69
2023/11/24 03:45:28;;;;;;;;;;;;;;;6.39;100.00;98739.22;4991824;28;19922;-70
2023/11/24 03:47:53;;;;;;;;;;;;;;;6.34;100.00;98731.06;4991962;28;19914;-70
2023/11/24 03:50:18;;;;;;;;;;;;;;;6.33;100.00;98740.50;4991084;28;20352;-69
2023/11/24 03:52:44;;;;;;;;;;;;;;;6.26;100.00;98740.19;4984622;28;19957;-69
2023/11/24 03:55:11;;;;;;;;;;;;;;;6.16;100.00;98741.31;4989815;28;20369;-69
2023/11/24 03:57:36;;;;;;;;;;;;;;;6.08;100.00;98729.03;4995669;28;19913;-70
2023/11/24 04:00:02;;;;;;;;;;;;;;;6.11;100.00;98722.84;4994422;28;19999;-70
2023/11/24 04:02:28;;;;;;;;;;;;;;;6.02;100.00;98720.03;4995444;28;19913;-69
2023/11/24 04:04:53;;;;;;;;;;;;;;;6.08;100.00;98733.78;4995363;28;19917;-69
2023/11/24 04:07:18;;;;;;;;;;;;;;;5.90;100.00;98717.88;4995446;28;20007;-69
2023/11/24 04:09:44;;;;;;;;;;;;;;;5.85;100.00;98715.25;4992576;28;19921;-70
2023/11/24 04:12:09;;;;;;;;;;;;;;;5.43;100.00;98714.75;4995297;28;19969;-70
2023/11/24 04:14:35;;;;;;;;;;;;;;;5.25;100.00;98709.13;4993801;28;19921;-69
2023/11/24 04:17:00;;;;;;;;;;;;;;;5.52;100.00;98706.47;4995175;28;20328;-69
2023/11/24 04:19:26;;;;;;;;;;;;;;;5.20;100.00;98723.94;4994308;28;20006;-69
2023/11/24 04:21:51;;;;;;;;;;;;;;;5.58;100.00;98728.19;4994794;28;20309;-69
2023/11/24 04:24:16;;;;;;;;;;;;;;;5.50;100.00;98728.16;4990492;28;19924;-69
2023/11/24 04:26:41;;;;;;;;;;;;;;;5.47;100.00;98727.66;4975479;28;20393;-69
2023/11/24 04:29:07;;;;;;;;;;;;;;;5.64;100.00;98723.31;4995015;28;19924;-69
2023/11/24 04:31:32;;;;;;;;;;;;;;;5.75;100.00;98724.66;4994605;28;20354;-70
2023/11/24 04:33:57;;;;;;;;;;;;;;;5.88;100.00;98720.16;4994776;28;19926;-69
2023/11/24 04:36:23;;;;;;;;;;;;;;;5.88;100.00;98716.53;4994822;28;19918;-69
2023/11/24 04:38:49;;;;;;;;;;;;;;;5.71;100.00;98728.41;4991862;28;20023;-69
2023/11/24 04:41:14;;;;;;;;;;;;;;;5.66;100.00;98729.34;5006388;28;19925;-70
2023/11/24 04:43:39;;;;;;;;;;;;;;;5.40;100.00;98724.50;4994660;28;19913;-69
2023/11/24 04:46:07;;;;;;;;;;;;;;;5.58;100.00;98722.63;4994442;28;19922;-69
2023/11/24 04:48:34;;;;;;;;;;;;;;;5.62;100.00;98714.50;4994095;28;20020;-69
2023/11/24 04:50:59;;;;;;;;;;;;;;;5.62;100.00;98714.50;4994378;28;20336;-70
2023/11/24 04:53:24;;;;;;;;;;;;;;;5.76;100.00;98701.31;4994245;28;19925;-69
2023/11/24 04:55:49;;;;;;;;;;;;;;;5.73;100.00;98707.53;4983434;28;19922;-70
2023/11/24 04:58:15;;;;;;;;;;;;;;;5.79;100.00;98713.75;4975031;28;20389;-69
2023/11/24 05:00:40;;;;;;;;;;;;;;;5.59;100.00;98724.28;4989717;28;20016;-69
2023/11/24 05:03:07;;;;;;;;;;;;;;;5.06;100.00;98717.63;4993347;28;20012;-69
2023/11/24 05:05:33;;;;;;;;;;;;;;;5.24;100.00;98717.75;4993051;28;20009;-69
2023/11/24 05:07:58;;;;;;;;;;;;;;;5.19;100.00;98704.84;4993989;28;20345;-69
2023/11/24 05:10:23;;;;;;;;;;;;;;;5.42;100.00;98708.38;4993498;28;20401;-69
2023/11/24 05:12:49;;;;;;;;;;;;;;;5.45;100.00;98706.91;4988818;28;20020;-69
2023/11/24 05:15:14;;;;;;;;;;;;;;;5.19;100.00;98693.75;4973424;28;20361;-69
2023/11/24 05:17:40;;;;;;;;;;;;;;;5.20;100.00;98699.00;4974561;28;19914;-70
2023/11/24 05:20:08;;;;;;;;;;;;;;;5.20;100.00;98699.00;4984595;28;19921;-70
2023/11/24 05:22:34;;;;;;;;;;;;;;;4.91;100.00;98703.03;4993651;28;19918;-69
2023/11/24 05:24:59;;;;;;;;;;;;;;;4.97;100.00;98700.94;4993926;28;19917;-69
2023/11/24 05:27:24;;;;;;;;;;;;;;;5.18;100.00;98690.16;4993911;28;19914;-69
2023/11/24 05:29:49;;;;;;;;;;;;;;;4.76;100.00;98692.34;4984565;28;19918;-69
2023/11/24 05:32:15;;;;;;;;;;;;;;;5.11;100.00;98687.03;4988831;28;20004;-70
2023/11/24 05:34:40;;;;;;;;;;;;;;;5.12;100.00;98688.66;4990510;28;20462;-69
2023/11/24 05:37:07;;;;;;;;;;;;;;;5.15;100.00;98663.06;4990946;28;19918;-69
2023/11/24 05:39:34;;;;;;;;;;;;;;;4.93;100.00;98683.34;4986594;28;19965;-69
2023/11/24 05:42:00;;;;;;;;;;;;;;;4.87;100.00;98660.47;4993467;28;20479;-69
2023/11/24 05:44:25;;;;;;;;;;;;;;;4.82;100.00;98674.44;4992170;28;20004;-69
2023/11/24 05:46:51;;;;;;;;;;;;;;;4.88;100.00;98670.41;4983255;28;19922;-70
2023/11/24 05:49:17;;;;;;;;;;;;;;;4.98;100.00;98672.09;4990507;28;19918;-69
2023/11/24 05:51:43;;;;;;;;;;;;;;;5.05;100.00;98672.47;4990170;28;19921;-69
2023/11/24 05:54:09;;;;;;;;;;;;;;;5.09;100.00;98657.97;4988675;28;20325;-69
2023/11/24 05:56:35;;;;;;;;;;;;;;;5.05;100.00;98666.09;4990059;28;19918;-69
2023/11/24 05:59:00;;;;;;;;;;;;;;;5.10;100.00;98667.94;4990400;28;19918;-67
2023/11/24 06:01:26;;;;;;;;;;;;;;;5.23;100.00;98672.56;4988838;28;20012;-69
2023/11/24 06:03:51;;;;;;;;;;;;;;;5.24;100.00;98673.38;4992266;28;19922;-68
2023/11/24 06:06:18;;;;;;;;;;;;;;;5.24;100.00;98662.28;4991733;28;20003;-69
2023/11/24 06:08:43;;;;;;;;;;;;;;;4.78;100.00;98674.28;4981542;28;19925;-69
2023/11/24 06:11:08;;;;;;;;;;;;;;;4.78;100.00;98670.69;4973399;28;19918;-69
2023/11/24 06:13:33;;;;;;;;;;;;;;;4.83;100.00;98665.03;4971274;28;19914;-70
2023/11/24 06:15:59;;;;;;;;;;;;;;;5.08;100.00;98659.13;4988563;28;19925;-70
2023/11/24 06:18:25;;;;;;;;;;;;;;;4.84;100.00;98657.50;4984268;28;19953;-71
2023/11/24 06:20:51;;;;;;;;;;;;;;;5.00;100.00;98652.41;4984235;28;20692;-70
2023/11/24 06:23:16;;;;;;;;;;;;;;;5.12;100.00;98638.75;4988980;28;19997;-70
2023/11/24 06:25:41;;;;;;;;;;;;;;;4.93;100.00;98647.31;4989166;28;20012;-71
2023/11/24 06:28:07;;;;;;;;;;;;;;;4.99;100.00;98631.34;4990219;28;20000;-70
2023/11/24 06:30:32;;;;;;;;;;;;;;;4.72;100.00;98647.03;4990452;28;19925;-71
2023/11/24 06:32:57;;;;;;;;;;;;;;;5.11;100.00;98645.44;4989740;28;20056;-70
2023/11/24 06:35:22;;;;;;;;;;;;;;;5.19;100.00;98638.28;4988661;28;19928;-68
2023/11/24 06:37:48;;;;;;;;;;;;;;;5.04;100.00;98645.06;4989791;28;19918;-71
2023/11/24 06:40:13;;;;;;;;;;;;;;;5.08;100.00;98637.78;4989689;28;19963;-70
2023/11/24 06:42:39;;;;;;;;;;;;;;;4.91;100.00;98628.22;4987086;28;20396;-69
2023/11/24 06:45:05;;;;;;;;;;;;;;;4.43;100.00;98629.72;4989469;28;19929;-71
2023/11/24 06:47:30;;;;;;;;;;;;;;;4.46;100.00;98626.31;4990012;28;19929;-70
2023/11/24 06:49:56;;;;;;;;;;;;;;;4.83;100.00;98620.69;4984530;28;19925;-71
2023/11/24 06:52:21;;;;;;;;;;;;;;;4.75;100.00;98618.69;4981075;28;19925;-71
2023/11/24 06:54:46;;;;;;;;;;;;;;;4.61;100.00;98614.03;4987064;28;19921;-72
2023/11/24 06:57:12;;;;;;;;;;;;;;;4.90;100.00;98615.50;4988371;28;19929;-71
2023/11/24 06:59:37;;;;;;;;;;;;;;;5.09;100.00;98608.91;4986782;28;19980;-68
2023/11/24 07:02:03;;;;;;;;;;;;;;;5.05;100.00;98616.22;4983557;28;19917;-71
2023/11/24 07:04:29;;;;;;;;;;;;;;;5.00;100.00;98606.06;4987161;28;20440;-71
2023/11/24 07:06:54;;;;;;;;;;;;;;;5.07;100.00;98608.41;4985508;28;20049;-71
2023/11/24 07:09:20;;;;;;;;;;;;;;;5.13;100.00;98604.34;4977380;28;20016;-71
2023/11/24 07:11:47;;;;;;;;;;;;;;;5.23;100.00;98607.97;4982486;28;19926;-71
2023/11/24 07:14:12;;;;;;;;;;;;;;;5.12;100.00;98602.72;4984615;28;20448;-71
2023/11/24 07:16:38;;;;;;;;;;;;;;;5.26;100.00;98610.09;4982446;28;20068;-71
2023/11/24 07:19:03;;;;;;;;;;;;;;;5.46;100.00;98603.97;4983560;28;20682;-71
2023/11/24 07:21:30;;;;;;;;;;;;;;;5.23;100.00;98608.78;4987309;28;19922;-69
2023/11/24 07:23:56;;;;;;;;;;;;;;;5.45;100.00;98605.13;4985485;28;19918;-68
2023/11/24 07:26:22;;;;;;;;;;;;;;;5.36;100.00;98592.34;4985239;28;20348;-70
2023/11/24 07:28:47;;;;;;;;;;;;;;;5.37;100.00;98594.81;4985672;28;19920;-73
2023/11/24 07:31:16;;;;;;;;;;;;;;;5.57;100.00;98587.03;4983452;28;20160;-73
2023/11/24 07:33:42;;;;;;;;;;;;;;;5.53;100.00;98591.59;4991452;28;20389;-69
2023/11/24 07:36:09;;;;;;;;;;;;;;;5.61;100.00;98591.63;4989160;28;19937;-72
2023/11/24 07:38:34;;;;;;;;;;;;;;;5.51;100.00;98585.53;4983013;28;19921;-69
2023/11/24 07:40:59;;;;;;;;;;;;;;;5.52;100.00;98574.13;4987078;28;19918;-71
2023/11/24 07:43:24;;;;;;;;;;;;;;;5.48;100.00;98573.97;4988866;28;19922;-73
2023/11/24 07:45:51;;;;;;;;;;;;;;;5.81;100.00;98581.03;4989674;28;19961;-73
2023/11/24 07:48:17;;;;;;;;;;;;;;;6.00;100.00;98577.13;4989662;28;19922;-72
2023/11/24 07:50:43;;;;;;;;;;;;;;;5.79;100.00;98574.16;4978844;28;19914;-71
2023/11/24 07:53:13;;;;;;;;;;;;;;;5.69;100.00;98578.06;4986821;28;19922;-72
2023/11/24 07:55:38;;;;;;;;;;;;;;;5.63;100.00;98585.72;4988532;28;19925;-71
2023/11/24 07:58:03;;;;;;;;;;;;;;;5.87;100.00;98567.81;4980647;28;20016;-74
2023/11/24 08:00:30;;;;;;;;;;;;;;;5.98;100.00;98560.00;4985593;28;19929;-70
2023/11/24 08:02:56;;;;;;;;;;;;;;;5.93;100.00;98562.91;4982240;28;19922;-69
2023/11/24 08:05:21;;;;;;;;;;;;;;;5.90;100.00;98572.69;4989226;28;20356;-69
2023/11/24 08:07:46;;;;;;;;;;;;;;;5.89;100.00;98554.41;4986558;28;19922;-70
2023/11/24 08:10:13;;;;;;;;;;;;;;;5.94;100.00;98545.94;4987137;28;20072;-69
2023/11/24 08:12:38;;;;;;;;;;;;;;;5.96;100.00;98542.81;4988324;28;20336;-69
2023/11/24 08:15:05;;;;;;;;;;;;;;;5.98;100.00;98543.34;4989304;28;19948;-69
2023/11/24 08:17:30;;;;;;;;;;;;;;;6.01;100.00;98532.41;4990215;28;19918;-71
2023/11/24 08:19:56;;;;;;;;;;;;;;;5.94;100.00;98532.06;4988703;28;19928;-70
2023/11/24 08:22:21;;;;;;;;;;;;;;;6.07;100.00;98526.69;4991347;28;19929;-71
2023/11/24 08:24:46;;;;;;;;;;;;;;;6.08;100.00;98520.78;4987296;28;19921;-70
2023/11/24 08:27:12;;;;;;;;;;;;;;;6.28;100.00;98511.00;4984849;28;20329;-69
2023/11/24 08:29:37;;;;;;;;;;;;;;;6.40;100.00;98495.59;4985127;28;19922;-71
2023/11/24 08:32:03;;;;;;;;;;;;;;;6.38;100.00;98493.16;4982897;28;19918;-69
2023/11/24 08:34:28;;;;;;;;;;;;;;;6.47;100.00;98498.66;4990156;28;20290;-70
2023/11/24 08:36:53;;;;;;;;;;;;;;;6.35;100.00;98493.00;4982461;28;19973;-70
2023/11/24 08:39:19;;;;;;;;;;;;;;;6.51;100.00;98490.50;4985597;28;19926;-69
2023/11/24 08:41:48;;;;;;;;;;;;;;;6.52;100.00;98476.28;4979570;28;19924;-68
2023/11/24 08:44:13;;;;;;;;;;;;;;;6.53;100.00;98479.84;4990049;28;20559;-68
2023/11/24 08:46:38;;;;;;;;;;;;;;;6.63;100.00;98470.34;4991383;28;19933;-68
2023/11/24 08:49:05;;;;;;;;;;;;;;;6.50;100.00;98459.09;4987578;28;20377;-69
2023/11/24 08:51:32;;;;;;;;;;;;;;;6.60;100.00;98461.53;4986869;28;20021;-69
2023/11/24 08:53:58;;;;;;;;;;;;;;;6.69;100.00;98452.34;4987453;28;19922;-72
2023/11/24 08:56:24;;;;;;;;;;;;;;;6.82;100.00;98453.28;4985058;28;20004;-73
2023/11/24 08:58:49;;;;;;;;;;;;;;;6.73;100.00;98447.72;4991055;28;19933;-71
2023/11/24 09:01:15;;;;;;;;;;;;;;;6.80;100.00;98447.22;4988269;28;19926;-72
2023/11/24 09:03:40;;;;;;;;;;;;;;;6.76;100.00;98452.66;4986743;28;19925;-71
2023/11/24 09:06:06;;;;;;;;;;;;;;;7.10;100.00;98439.69;4986485;28;19972;-71
2023/11/24 09:08:31;;;;;;;;;;;;;;;7.03;100.00;98439.41;4982227;28;20008;-70
2023/11/24 09:10:56;;;;;;;;;;;;;;;7.11;100.00;98429.38;4986523;28;20001;-70
2023/11/24 09:13:22;;;;;;;;;;;;;;;6.98;100.00;98436.81;4985269;28;20377;-72
2023/11/24 09:15:49;;;;;;;;;;;;;;;7.14;100.00;98449.00;4987824;28;19976;-74
2023/11/24 09:18:14;;;;;;;;;;;;;;;6.91;100.00;98428.19;4978622;28;19968;-75
2023/11/24 09:20:40;;;;;;;;;;;;;;;7.00;100.00;98434.53;4987224;28;19953;-75
2023/11/24 09:23:05;;;;;;;;;;;;;;;7.23;100.00;98403.59;4986233;28;20362;-74
2023/11/24 09:25:32;;;;;;;;;;;;;;;7.05;100.00;98400.97;4986321;28;19980;-75
2023/11/24 09:27:57;;;;;;;;;;;;;;;7.07;100.00;98404.22;4986665;28;19922;-71
2023/11/24 09:30:23;;;;;;;;;;;;;;;7.15;100.00;98396.94;4982930;28;19922;-71
2023/11/24 09:32:50;;;;;;;;;;;;;;;7.24;100.00;98399.66;4988817;28;20316;-70
2023/11/24 09:35:15;;;;;;;;;;;;;;;7.29;100.00;98391.13;4976891;28;20056;-70
2023/11/24 09:37:41;;;;;;;;;;;;;;;7.45;100.00;98389.34;4984916;28;19973;-70
2023/11/24 09:40:12;;;;;;;;;;;;;;;7.39;100.00;98376.81;4978782;28;19924;-69
2023/11/24 09:42:43;;;;;;;;;;;;;;;7.47;100.00;98382.63;4993235;28;19920;-68
2023/11/24 09:45:14;;;;;;;;;;;;;;;7.66;100.00;98365.44;4992298;28;19961;-69
2023/11/24 09:47:49;;;;;;;;;;;;;;;7.76;100.00;98361.41;4986695;28;19921;-70
2023/11/24 09:50:23;;;;;;;;;;;;;;;7.84;100.00;98358.53;4979389;28;19984;-72
2023/11/24 09:52:49;;;;;;;;;;;;;;;7.97;100.00;98337.13;4984388;28;19922;-72
2023/11/24 09:55:15;;;;;;;;;;;;;;;8.09;100.00;98343.88;4988707;28;19926;-71
2023/11/24 09:57:40;;;;;;;;;;;;;;;8.20;100.00;98319.94;4987064;28;19928;-71
2023/11/24 10:00:09;;;;;;;;;;;;;;;8.12;100.00;98309.75;4988160;28;19956;-71
2023/11/24 10:02:35;;;;;;;;;;;;;;;7.90;100.00;98299.84;4986476;28;19925;-69
2023/11/24 10:05:01;;;;;;;;;;;;;;;8.07;100.00;98291.28;4985584;28;19972;-70
2023/11/24 10:07:26;;;;;;;;;;;;;;;8.17;100.00;98294.78;4985710;28;20416;-73
2023/11/24 10:09:52;;;;;;;;;;;;;;;8.36;100.00;98294.19;4988674;28;19918;-74
2023/11/24 10:12:17;;;;;;;;;;;;;;;8.47;100.00;98277.81;4984128;28;19929;-71
2023/11/24 10:14:43;;;;;;;;;;;;;;;8.65;100.00;98270.03;4986628;28;20016;-73
2023/11/24 10:17:12;;;;;;;;;;;;;;;8.65;100.00;98259.69;4984857;28;19922;-74
2023/11/24 10:19:38;;;;;;;;;;;;;;;8.73;100.00;98255.16;4983880;28;19922;-69
2023/11/24 10:22:03;;;;;;;;;;;;;;;8.84;100.00;98245.13;4988691;28;20020;-71
2023/11/24 10:24:35;;;;;;;;;;;;;;;8.93;100.00;98228.25;4986240;28;20012;-71
2023/11/24 10:27:17;;;;;;;;;;;;;;;9.05;100.00;98232.16;4987289;28;20012;-70
2023/11/24 10:29:42;;;;;;;;;;;;;;;9.20;100.00;98234.16;4985504;28;19922;-69
2023/11/24 10:32:07;;;;;;;;;;;;;;;9.41;100.00;98231.16;4987123;28;20009;-68
2023/11/24 10:34:32;;;;;;;;;;;;;;;9.40;100.00;98225.94;4987608;28;19957;-72
2023/11/24 10:36:59;;;;;;;;;;;;;;;9.25;100.00;98211.59;4988908;28;20302;-70
2023/11/24 10:39:30;;;;;;;;;;;;;;;9.14;100.00;98213.28;4987455;28;20388;-69
2023/11/24 10:41:55;;;;;;;;;;;;;;;9.25;100.00;98208.81;4986236;28;19922;-69
2023/11/24 10:44:21;;;;;;;;;;;;;;;9.33;100.00;98206.19;4987541;28;19976;-70
2023/11/24 10:46:48;;;;;;;;;;;;;;;9.45;100.00;98200.53;4982205;28;19925;-69
2023/11/24 10:49:34;;;;;;;;;;;;;;;9.45;100.00;98189.38;4981996;28;19926;-68
2023/11/24 10:52:00;;;;;;;;;;;;;;;9.41;100.00;98178.13;4988185;28;19922;-71
2023/11/24 10:54:34;;;;;;;;;;;;;;;9.54;100.00;98192.81;4986903;28;19933;-70
2023/11/24 10:56:59;;;;;;;;;;;;;;;9.73;100.00;98198.84;4984923;28;20359;-69
2023/11/24 10:59:30;;;;;;;;;;;;;;;9.61;100.00;98177.44;4988776;28;20013;-70
2023/11/24 11:01:57;;;;;;;;;;;;;;;9.65;100.00;98186.69;4983835;28;19922;-70
2023/11/24 11:04:23;;;;;;;;;;;;;;;9.72;100.00;98174.88;4987253;28;20456;-72
2023/11/24 11:07:14;;;;;;;;;;;;;;;9.82;100.00;98175.13;4985037;28;19918;-73
2023/11/24 11:09:47;;;;;;;;;;;;;;;10.05;100.00;98176.47;4976871;28;20466;-76
2023/11/24 11:12:31;;;;;;;;;;;;;;;10.27;100.00;98185.38;4986973;28;19972;-73
2023/11/24 11:14:57;;;;;;;;;;;;;;;10.24;100.00;98190.47;4990096;28;20008;-74
2023/11/24 11:17:25;;;;;;;;;;;;;;;10.15;100.00;98180.69;4989141;28;20056;-74
2023/11/24 11:20:00;;;;;;;;;;;;;;;10.24;100.00;98167.34;4985185;28;20222;-73
2023/11/24 11:22:30;;;;;;;;;;;;;;;10.25;100.00;98163.38;4988717;28;19918;-73
2023/11/24 11:25:15;;;;;;;;;;;;;;;10.38;100.00;98150.88;4986689;28;19952;-72
2023/11/24 11:27:42;;;;;;;;;;;;;;;10.53;100.00;98146.44;4987981;28;19944;-72
2023/11/24 11:30:22;;;;;;;;;;;;;;;10.51;100.00;98136.78;4986683;28;20320;-73
2023/11/24 11:33:00;;;;;;;;;;;;;;;10.43;100.00;98130.25;4989878;28;19921;-73
2023/11/24 11:35:28;;;;;;;;;;;;;;;10.37;100.00;98118.50;4987494;28;20068;-73
2023/11/24 11:37:58;;;;;;;;;;;;;;;10.48;100.00;98126.34;4989243;28;19922;-73
2023/11/24 11:40:26;;;;;;;;;;;;;;;10.73;100.00;98131.66;4989022;28;19925;-73
2023/11/24 11:43:05;;;;;;;;;;;;;;;10.91;100.00;98137.59;4987986;28;20392;-72
2023/11/24 11:45:45;;;;;;;;;;;;;;;10.93;100.00;98130.47;4988017;28;19929;-73
2023/11/24 11:48:11;;;;;;;;;;;;;;;10.95;100.00;98135.66;4988721;28;19929;-72
2023/11/24 11:50:40;;;;;;;;;;;;;;;10.97;100.00;98130.50;4986785;28;20316;-72
2023/11/24 11:53:05;;;;;;;;;;;;;;;11.04;100.00;98136.25;4989243;28;19913;-72
2023/11/24 11:55:30;;;;;;;;;;;;;;;11.09;100.00;98124.75;4987537;28;19933;-72
2023/11/24 11:57:57;;;;;;;;;;;;;;;11.24;100.00;98113.81;4989571;28;19922;-72
2023/11/24 12:00:25;;;;;;;;;;;;;;;11.21;100.00;98103.34;4987982;28;20328;-72
2023/11/24 12:02:51;;;;;;;;;;;;;;;11.17;100.00;98094.91;4984002;28;19929;-72
2023/11/24 12:05:18;;;;;;;;;;;;;;;11.06;100.00;98086.31;4987363;28;19981;-72
2023/11/24 12:07:44;;;;;;;;;;;;;;;11.11;100.00;98088.00;4985809;28;19922;-71
2023/11/24 12:10:11;;;;;;;;;;;;;;;11.20;100.00;98091.38;4984777;28;20332;-70
2023/11/24 12:12:36;;;;;;;;;;;;;;;11.20;100.00;98082.16;4987362;28;19925;-70
2023/11/24 12:15:01;;;;;;;;;;;;;;;11.20;100.00;98071.78;4987559;28;19926;-71
2023/11/24 12:17:27;;;;;;;;;;;;;;;11.24;100.00;98083.03;4989080;28;19941;-72
2023/11/24 12:19:53;;;;;;;;;;;;;;;11.37;100.00;98090.06;4991167;28;19921;-72
2023/11/24 12:22:19;;;;;;;;;;;;;;;11.40;100.00;98084.88;4993255;28;20385;-70
2023/11/24 12:24:45;;;;;;;;;;;;;;;11.15;100.00;98065.69;4992641;28;19918;-71
2023/11/24 12:27:11;;;;;;;;;;;;;;;11.08;100.00;98058.75;4989138;28;20423;-72
2023/11/24 12:29:37;;;;;;;;;;;;;;;11.14;100.00;98064.06;4994072;28;20456;-72
2023/11/24 12:32:03;;;;;;;;;;;;;;;11.23;100.00;98053.44;4994249;28;19913;-70
2023/11/24 12:34:29;;;;;;;;;;;;;;;11.05;100.00;98037.13;4992078;28;19965;-71
2023/11/24 12:36:54;;;;;;;;;;;;;;;10.94;100.00;98038.94;4991911;28;19960;-72
2023/11/24 12:39:23;;;;;;;;;;;;;;;10.81;100.00;98035.53;4992867;28;20467;-71
2023/11/24 12:41:50;;;;;;;;;;;;;;;10.85;100.00;98024.38;4987098;28;19925;-72